Time;durP1;ratioP1;P1;durP2;ratioP2;P2;SDS_P1;SDS_P2;PMS_P1;PMS_P2;Temp;Humidity;BMP_temperature;BMP_pressure;BME280_temperature;BME280_humidity;BME280_pressure;Samples;Min_cycle;Max_cycle;Signal;HPM_P1;HPM_P2
2021/04/22 00:03:49;;;;;;;8.20;7.40;;;;;;;12.22;57.03;97918.69;8363518;28;20204;-68
2021/04/22 00:07:52;;;;;;;7.60;6.80;;;;;;;12.28;57.22;97920.97;8363014;28;20596;-68
2021/04/22 00:11:54;;;;;;;9.93;7.27;;;;;;;12.26;56.91;97922.78;8363090;28;20219;-68
2021/04/22 00:15:57;;;;;;;9.63;7.23;;;;;;;12.11;57.16;97926.19;8363127;28;20235;-68
2021/04/22 00:19:59;;;;;;;10.27;7.53;;;;;;;12.04;57.06;97930.84;8362664;28;20244;-68
2021/04/22 00:24:02;;;;;;;8.87;7.97;;;;;;;12.06;57.08;97930.75;8363833;28;20210;-68
2021/04/22 00:28:05;;;;;;;8.80;7.93;;;;;;;12.00;57.49;97936.28;8362692;28;20667;-68
2021/04/22 00:32:07;;;;;;;9.37;8.37;;;;;;;11.98;57.43;97933.75;8362245;28;20243;-68
2021/04/22 00:36:09;;;;;;;8.43;7.60;;;;;;;12.08;57.16;97936.72;8362482;28;20318;-68
2021/04/22 00:40:14;;;;;;;10.77;7.83;;;;;;;12.02;57.10;97937.88;8362393;28;20547;-68
2021/04/22 00:44:16;;;;;;;8.83;8.03;;;;;;;12.03;57.15;97936.97;8363129;28;20212;-68
2021/04/22 00:48:20;;;;;;;10.17;7.80;;;;;;;12.04;57.02;97945.56;8362884;28;20203;-68
2021/04/22 00:52:23;;;;;;;9.17;8.27;;;;;;;12.06;56.91;97944.56;8362786;28;20282;-68
2021/04/22 00:56:25;;;;;;;10.37;8.27;;;;;;;12.06;56.74;97947.16;8362235;28;20239;-68
2021/04/22 01:00:30;;;;;;;9.50;8.53;;;;;;;12.02;56.87;97944.81;8365464;28;20200;-68
2021/04/22 01:04:32;;;;;;;13.23;8.60;;;;;;;12.00;56.58;97952.69;8370247;28;20203;-68
2021/04/22 01:08:34;;;;;;;14.03;9.97;;;;;;;11.93;56.43;97957.31;8369180;28;20240;-68
2021/04/22 01:12:37;;;;;;;14.07;10.20;;;;;;;11.67;57.38;97956.00;8368985;28;20214;-68
2021/04/22 01:16:39;;;;;;;12.03;10.80;;;;;;;11.88;56.50;97953.25;8368280;28;20232;-68
2021/04/22 01:20:43;;;;;;;11.40;10.30;;;;;;;11.96;56.16;97952.91;8368993;28;20647;-68
2021/04/22 01:24:45;;;;;;;16.20;10.90;;;;;;;11.97;56.19;97958.00;8368372;28;20210;-68
2021/04/22 01:28:47;;;;;;;12.40;11.20;;;;;;;12.05;55.59;97957.63;8369510;28;20207;-68
2021/04/22 01:32:50;;;;;;;14.40;11.40;;;;;;;12.04;55.85;97961.97;8369754;28;20224;-68
2021/04/22 01:36:52;;;;;;;13.97;11.40;;;;;;;12.12;55.42;97965.03;8368076;28;20317;-68
2021/04/22 01:40:55;;;;;;;11.60;10.40;;;;;;;12.23;55.02;97971.44;8368415;28;20607;-68
2021/04/22 01:44:57;;;;;;;12.43;10.97;;;;;;;12.29;54.73;97968.53;8368200;28;20223;-68
2021/04/22 01:48:58;;;;;;;13.40;10.97;;;;;;;12.21;54.81;97962.91;8368423;28;20211;-68
2021/04/22 01:53:01;;;;;;;14.07;10.83;;;;;;;12.15;55.07;97971.84;8368725;28;20211;-68
2021/04/22 01:57:05;;;;;;;15.33;11.77;;;;;;;11.98;55.15;97975.28;8367042;28;20231;-68
2021/04/22 02:01:07;;;;;;;13.43;11.30;;;;;;;12.06;55.12;97967.94;8367541;28;20218;-68
2021/04/22 02:05:11;;;;;;;15.20;11.63;;;;;;;12.01;55.19;97977.69;8367741;28;20214;-68
2021/04/22 02:09:13;;;;;;;14.87;12.07;;;;;;;12.01;55.15;97982.06;8367722;28;20211;-68
2021/04/22 02:13:18;;;;;;;17.10;12.20;;;;;;;12.15;54.08;97983.94;8366212;28;20667;-68
2021/04/22 02:17:20;;;;;;;15.87;11.23;;;;;;;12.16;54.19;97989.06;8367181;28;20239;-68
2021/04/22 02:21:22;;;;;;;13.70;11.20;;;;;;;12.15;53.72;97990.00;8367929;28;20208;-68
2021/04/22 02:25:25;;;;;;;16.40;11.40;;;;;;;12.28;52.93;98006.66;8366893;28;20199;-68
2021/04/22 02:29:28;;;;;;;16.17;11.17;;;;;;;12.15;53.04;98010.78;8365994;28;20235;-68
2021/04/22 02:33:30;;;;;;;13.57;11.27;;;;;;;12.19;52.71;98011.47;8367158;28;20199;-68
2021/04/22 02:37:32;;;;;;;18.63;10.80;;;;;;;12.26;52.27;98016.28;8365903;28;20224;-68
2021/04/22 02:41:34;;;;;;;16.30;11.10;;;;;;;12.01;52.39;98024.41;8365758;28;20223;-68
2021/04/22 02:45:39;;;;;;;17.27;11.13;;;;;;;12.20;52.17;98021.75;8365688;28;20204;-68
2021/04/22 02:49:41;;;;;;;18.27;11.30;;;;;;;12.37;51.46;98018.31;8365935;28;20200;-68
2021/04/22 02:53:42;;;;;;;16.83;11.03;;;;;;;12.10;51.57;98020.53;8365747;28;20196;-68
2021/04/22 02:57:44;;;;;;;14.43;10.20;;;;;;;11.97;51.40;98024.66;8365117;28;20235;-68
2021/04/22 03:01:47;;;;;;;16.17;10.87;;;;;;;11.93;52.06;98024.78;8365585;28;20610;-68
2021/04/22 03:05:50;;;;;;;16.27;10.53;;;;;;;11.80;51.74;98026.28;8365360;28;20200;-68
2021/04/22 03:09:51;;;;;;;16.43;10.33;;;;;;;11.92;51.52;98030.91;8365190;28;20226;-68
2021/04/22 03:13:53;;;;;;;18.03;10.30;;;;;;;11.81;51.17;98025.38;8384490;28;20299;-68
2021/04/22 03:17:56;;;;;;;15.57;9.80;;;;;;;11.96;51.37;98041.16;8397518;28;20278;-68
2021/04/22 03:21:58;;;;;;;14.93;9.97;;;;;;;11.67;51.87;98049.38;8397706;28;20539;-68
2021/04/22 03:26:00;;;;;;;14.97;9.67;;;;;;;11.46;52.25;98042.59;8397799;28;20210;-68
2021/04/22 03:30:02;;;;;;;19.50;10.43;;;;;;;11.64;51.99;98054.72;8397323;28;20235;-68
2021/04/22 03:34:05;;;;;;;19.00;9.80;;;;;;;11.62;51.66;98048.75;8397587;28;20541;-68
2021/04/22 03:38:07;;;;;;;16.57;9.83;;;;;;;11.54;52.10;98056.91;8397227;28;20266;-68
2021/04/22 03:42:09;;;;;;;16.23;9.33;;;;;;;11.62;52.25;98058.31;8397082;28;20635;-68
2021/04/22 03:46:11;;;;;;;15.33;8.90;;;;;;;11.36;52.61;98062.94;8397311;28;20199;-68
2021/04/22 03:50:16;;;;;;;14.87;9.50;;;;;;;11.53;52.82;98056.97;8396595;28;20276;-68
2021/04/22 03:54:18;;;;;;;15.60;8.23;;;;;;;11.33;52.90;98063.09;8396945;28;20555;-68
2021/04/22 03:58:20;;;;;;;15.20;8.83;;;;;;;11.30;52.63;98068.41;8396182;28;20258;-67
2021/04/22 04:02:22;;;;;;;14.17;8.30;;;;;;;10.80;53.49;98066.34;8397045;28;20206;-68
2021/04/22 04:06:25;;;;;;;15.67;8.87;;;;;;;11.15;52.49;98064.75;8395850;28;20287;-68
2021/04/22 04:10:26;;;;;;;17.57;8.57;;;;;;;10.85;51.53;98064.34;8396264;28;20195;-68
2021/04/22 04:14:28;;;;;;;14.03;7.50;;;;;;;10.81;51.03;98073.19;8397019;28;20230;-68
2021/04/22 04:18:30;;;;;;;13.13;7.10;;;;;;;10.81;51.06;98066.25;8397209;28;20230;-68
2021/04/22 04:22:33;;;;;;;13.80;6.30;;;;;;;10.95;50.55;98083.78;8397169;28;20199;-68
2021/04/22 04:26:35;;;;;;;14.93;7.20;;;;;;;10.95;50.25;98091.56;8395342;28;20207;-67
2021/04/22 04:30:37;;;;;;;15.47;6.80;;;;;;;10.99;50.45;98098.28;8396358;28;20234;-68
2021/04/22 04:34:39;;;;;;;15.23;7.13;;;;;;;10.90;50.11;98096.09;8396085;28;20540;-68
2021/04/22 04:38:42;;;;;;;12.97;6.53;;;;;;;10.78;49.70;98097.47;8395342;28;20222;-67
2021/04/22 04:42:45;;;;;;;14.97;5.57;;;;;;;10.95;48.73;98112.28;8395647;28;20305;-67
2021/04/22 04:46:46;;;;;;;12.97;5.90;;;;;;;10.76;48.73;98126.03;8394714;28;20615;-68
2021/04/22 04:50:48;;;;;;;14.33;5.70;;;;;;;10.74;47.74;98138.22;8395046;28;20276;-67
2021/04/22 04:54:51;;;;;;;12.60;5.03;;;;;;;10.92;47.31;98140.91;8395512;28;20207;-68
2021/04/22 04:58:53;;;;;;;14.90;5.07;;;;;;;10.74;45.52;98145.16;8394930;28;20223;-68
2021/04/22 05:02:55;;;;;;;9.90;4.30;;;;;;;10.83;45.76;98156.84;8393848;28;20223;-68
2021/04/22 05:06:57;;;;;;;13.37;4.70;;;;;;;10.73;45.87;98166.75;8395285;28;20246;-68
2021/04/22 05:11:00;;;;;;;11.33;4.57;;;;;;;10.65;45.18;98169.66;8394844;28;20213;-68
2021/04/22 05:15:02;;;;;;;11.00;4.30;;;;;;;10.60;44.55;98181.13;8396109;28;20317;-68
2021/04/22 05:19:04;;;;;;;11.30;4.33;;;;;;;10.76;44.88;98197.72;8395575;28;20227;-68
2021/04/22 05:23:06;;;;;;;10.73;4.43;;;;;;;10.19;45.01;98197.38;8395563;28;20199;-68
2021/04/22 05:27:09;;;;;;;11.93;4.20;;;;;;;10.48;44.84;98203.19;8395708;28;20221;-68
2021/04/22 05:31:11;;;;;;;13.30;4.90;;;;;;;10.45;45.27;98200.72;8394227;28;20340;-68
2021/04/22 05:35:13;;;;;;;10.67;3.97;;;;;;;10.94;45.04;98202.13;8394416;28;20199;-68
2021/04/22 05:39:24;;;;;;;7.87;3.93;;;;;;;10.66;44.97;98214.53;8395881;28;20302;-68
2021/04/22 05:43:27;;;;;;;11.97;4.00;;;;;;;10.84;44.92;98220.72;8395965;28;20203;-68
2021/04/22 05:47:29;;;;;;;13.60;4.10;;;;;;;10.52;45.66;98233.22;8398997;28;20214;-68
2021/04/22 05:51:31;;;;;;;9.97;4.60;;;;;;;10.62;45.16;98239.72;8401140;28;20669;-67
2021/04/22 05:55:33;;;;;;;14.97;4.13;;;;;;;10.71;45.36;98239.34;8401859;28;20218;-67
2021/04/22 05:59:36;;;;;;;12.77;4.57;;;;;;;10.71;45.19;98246.28;8401334;28;20226;-68
2021/04/22 06:03:38;;;;;;;10.97;4.50;;;;;;;10.71;45.16;98254.88;8402203;28;20211;-68
2021/04/22 06:07:40;;;;;;;11.73;4.20;;;;;;;10.86;44.30;98252.59;8401616;28;20209;-67
2021/04/22 06:11:41;;;;;;;12.17;4.33;;;;;;;10.95;43.94;98258.25;8400174;28;20203;-67
2021/04/22 06:15:44;;;;;;;10.43;3.60;;;;;;;11.39;43.41;98259.03;8399834;28;20610;-68
2021/04/22 06:19:46;;;;;;;10.47;3.90;;;;;;;11.76;42.87;98255.66;8400260;28;20227;-68
2021/04/22 06:23:48;;;;;;;11.27;4.10;;;;;;;11.78;42.74;98253.84;8400244;28;20202;-68
2021/04/22 06:27:50;;;;;;;12.50;4.10;;;;;;;12.01;41.85;98262.38;8399857;28;20203;-68
2021/04/22 06:31:55;;;;;;;12.13;4.10;;;;;;;12.23;41.71;98270.88;8400980;28;20235;-68
2021/04/22 06:35:57;;;;;;;12.97;4.30;;;;;;;11.86;41.45;98272.53;8401730;28;20197;-68
2021/04/22 06:40:00;;;;;;;13.37;4.27;;;;;;;12.06;41.54;98274.22;8400393;28;20578;-68
2021/04/22 06:44:02;;;;;;;12.23;4.17;;;;;;;11.99;40.54;98282.38;8400809;28;20207;-68
2021/04/22 06:48:07;;;;;;;15.87;4.20;;;;;;;12.41;40.61;98294.28;8400489;28;20210;-68
2021/04/22 06:52:09;;;;;;;10.23;4.17;;;;;;;12.60;38.11;98286.47;8401449;28;20557;-68
2021/04/22 06:56:11;;;;;;;18.77;4.50;;;;;;;13.41;37.17;98305.94;8400950;28;20206;-67
2021/04/22 07:00:15;;;;;;;9.20;3.47;;;;;;;14.83;42.65;98314.94;8397894;28;20233;-67
2021/04/22 07:04:18;;;;;;;19.67;4.10;;;;;;;14.99;36.90;98317.50;8398793;28;20200;-67
2021/04/22 07:08:20;;;;;;;10.30;3.70;;;;;;;15.22;34.43;98316.19;8399447;28;20203;-67
2021/04/22 07:12:22;;;;;;;10.67;3.53;;;;;;;15.78;34.03;98324.28;8398342;28;20206;-67
2021/04/22 07:16:24;;;;;;;10.33;3.57;;;;;;;16.33;32.87;98330.50;8399082;28;20219;-67
2021/04/22 07:20:27;;;;;;;11.87;3.40;;;;;;;16.57;32.06;98329.91;8398108;28;20241;-68
2021/04/22 07:24:29;;;;;;;13.40;3.77;;;;;;;16.95;30.88;98337.13;8398400;28;20207;-67
2021/04/22 07:28:32;;;;;;;8.30;3.03;;;;;;;17.39;30.94;98335.97;8397790;28;20214;-67
2021/04/22 07:32:49;;;;;;;15.03;3.57;;;;;;;17.83;30.50;98328.69;8398297;28;20242;-68
2021/04/22 07:36:54;;;;;;;10.40;3.20;;;;;;;17.95;30.35;98338.34;8398836;28;20553;-67
2021/04/22 07:40:56;;;;;;;11.23;3.47;;;;;;;18.30;30.58;98340.34;8398096;28;20222;-66
2021/04/22 07:44:59;;;;;;;11.57;3.50;;;;;;;18.65;29.86;98347.47;8397158;28;20207;-66
2021/04/22 07:49:00;;;;;;;10.23;3.10;;;;;;;19.09;29.65;98346.91;8398391;28;20298;-67
2021/04/22 07:53:06;;;;;;;7.40;2.80;;;;;;;19.02;29.22;98352.72;8398784;28;20218;-68
2021/04/22 07:57:09;;;;;;;9.20;3.60;;;;;;;19.17;29.30;98354.22;8366159;28;20293;-68
2021/04/22 08:01:10;;;;;;;17.47;3.90;;;;;;;19.51;28.44;98362.22;8364430;28;20200;-67
2021/04/22 08:05:14;;;;;;;9.83;3.50;;;;;;;18.40;27.01;98343.16;8364674;28;20196;-66
2021/04/22 08:09:37;;;;;;;14.20;3.97;;;;;;;17.37;27.52;98354.41;8365159;28;20561;-66
2021/04/22 08:13:39;;;;;;;10.57;3.40;;;;;;;16.81;27.42;98353.66;8364278;28;20211;-65
2021/04/22 08:17:41;;;;;;;10.37;3.60;;;;;;;16.74;28.36;98349.75;8363720;28;20232;-66
2021/04/22 08:21:43;;;;;;;8.97;2.97;;;;;;;16.78;28.00;98357.31;8363568;28;20242;-64
2021/04/22 08:25:49;;;;;;;11.07;3.30;;;;;;;17.09;27.26;98362.38;8363596;28;20203;-64
2021/04/22 08:29:50;;;;;;;8.40;3.17;;;;;;;17.53;26.02;98366.47;8366125;28;20249;-64
2021/04/22 08:33:54;;;;;;;10.83;3.67;;;;;;;17.81;26.14;98367.25;8396580;28;20267;-64
2021/04/22 08:37:56;;;;;;;11.07;3.67;;;;;;;17.93;26.48;98356.81;8395775;28;20222;-64
2021/04/22 08:41:59;;;;;;;11.67;4.13;;;;;;;18.22;26.16;98369.72;8395736;28;20211;-64
2021/04/22 08:46:02;;;;;;;13.13;3.97;;;;;;;18.47;25.82;98375.88;8395469;28;20199;-64
2021/04/22 08:50:05;;;;;;;11.27;3.47;;;;;;;18.32;23.89;98381.22;8397772;28;20207;-63
2021/04/22 08:54:21;;;;;;;9.20;3.30;;;;;;;18.35;24.72;98370.53;8397010;28;20187;-64
2021/04/22 08:58:24;;;;;;;11.67;3.60;;;;;;;18.41;25.50;98385.00;8397118;28;20223;-64
2021/04/22 09:02:26;;;;;;;11.20;4.00;;;;;;;18.61;25.30;98375.72;8374658;28;20620;-63
2021/04/22 09:06:28;;;;;;;9.90;3.50;;;;;;;18.32;24.93;98375.97;8365419;28;20199;-64
2021/04/22 09:10:31;;;;;;;8.07;2.90;;;;;;;18.39;24.61;98379.03;8364515;28;20332;-64
2021/04/22 09:14:36;;;;;;;8.63;3.00;;;;;;;18.70;24.29;98380.31;8363620;28;20223;-64
2021/04/22 09:18:40;;;;;;;13.13;3.73;;;;;;;17.97;23.81;98387.13;8362871;28;20263;-64
2021/04/22 09:22:43;;;;;;;12.87;3.67;;;;;;;18.26;24.94;98389.50;8368894;28;20210;-64
2021/04/22 09:26:50;;;;;;;10.40;3.93;;;;;;;18.38;25.09;98392.22;8368995;28;20222;-64
2021/04/22 09:30:53;;;;;;;11.53;4.07;;;;;;;17.86;24.78;98394.84;8370578;28;20224;-64
2021/04/22 09:34:57;;;;;;;13.37;3.80;;;;;;;18.42;29.78;98399.78;8368685;28;20585;-64
2021/04/22 09:38:59;;;;;;;10.97;4.13;;;;;;;19.56;30.38;98394.25;8369675;28;20232;-64
2021/04/22 09:43:02;;;;;;;11.27;4.00;;;;;;;20.26;26.97;98397.78;8367897;28;20219;-64
2021/04/22 09:47:09;;;;;;;15.93;3.50;;;;;;;20.60;25.74;98396.03;8368300;28;20716;-64
2021/04/22 09:51:12;;;;;;;10.77;3.53;;;;;;;20.81;24.14;98396.13;8368577;28;20192;-64
2021/04/22 09:55:17;;;;;;;15.67;4.03;;;;;;;20.79;23.66;98384.03;8368367;28;20556;-64
2021/04/22 09:59:21;;;;;;;8.70;3.30;;;;;;;20.81;24.46;98390.00;8367068;28;20232;-64
2021/04/22 10:03:24;;;;;;;14.00;4.00;;;;;;;20.54;23.13;98385.94;8382185;28;20195;-64
2021/04/22 10:07:29;;;;;;;8.20;3.20;;;;;;;20.84;24.44;98390.59;8399526;28;20264;-63
2021/04/22 10:11:41;;;;;;;13.43;3.50;;;;;;;21.12;21.37;98375.22;8399814;28;20202;-64
2021/04/22 10:15:49;;;;;;;10.53;3.43;;;;;;;21.30;20.33;98396.56;8400795;28;20230;-64
2021/04/22 10:20:01;;;;;;;15.00;3.67;;;;;;;21.50;22.10;98400.25;8401175;28;20242;-61
2021/04/22 10:24:04;;;;;;;11.20;4.00;;;;;;;21.68;21.78;98403.16;8400740;28;20256;-62
2021/04/22 10:28:07;;;;;;;11.30;3.90;;;;;;;21.94;21.63;98395.69;8399269;28;20218;-61
2021/04/22 10:32:09;;;;;;;13.63;4.10;;;;;;;21.99;21.48;98390.88;8398930;28;20365;-61
2021/04/22 10:36:12;;;;;;;10.03;3.63;;;;;;;22.26;21.99;98384.25;8399026;28;20210;-63
2021/04/22 10:40:17;;;;;;;13.70;3.80;;;;;;;22.16;22.47;98385.94;8400205;28;20234;-67
2021/04/22 10:44:20;;;;;;;12.20;3.67;;;;;;;22.34;21.10;98386.22;8398600;28;20219;-67
2021/04/22 10:48:22;;;;;;;12.13;3.70;;;;;;;22.60;23.30;98383.97;8399994;28;20428;-69
2021/04/22 10:52:25;;;;;;;12.37;3.63;;;;;;;22.10;22.73;98391.75;8403131;28;20208;-67
2021/04/22 10:56:29;;;;;;;9.83;3.40;;;;;;;21.81;21.57;98390.63;8401843;28;20201;-69
2021/04/22 11:00:32;;;;;;;9.60;3.10;;;;;;;21.93;21.18;98391.38;8399538;28;20223;-70
2021/04/22 11:04:35;;;;;;;13.27;3.70;;;;;;;22.27;20.89;98379.81;8400778;28;20214;-68
2021/04/22 11:08:41;;;;;;;8.67;3.07;;;;;;;22.27;21.34;98388.53;8399384;28;20204;-68
2021/04/22 11:12:47;;;;;;;12.77;3.43;;;;;;;22.32;19.78;98382.88;8400048;28;20194;-68
2021/04/22 11:16:52;;;;;;;10.90;3.47;;;;;;;22.11;18.50;98382.91;8400753;28;20231;-68
2021/04/22 11:20:58;;;;;;;10.20;3.20;;;;;;;22.04;20.02;98391.31;8400680;28;20257;-70
2021/04/22 11:25:03;;;;;;;8.97;3.13;;;;;;;22.10;20.01;98382.03;8400383;28;20217;-67
2021/04/22 11:29:11;;;;;;;8.90;3.57;;;;;;;22.01;19.14;98390.75;8398279;28;20278;-68
2021/04/22 11:33:13;;;;;;;13.53;3.80;;;;;;;21.77;18.80;98386.56;8397218;28;20189;-68
2021/04/22 11:37:18;;;;;;;9.63;3.57;;;;;;;22.14;19.55;98387.88;8396980;28;20253;-68
2021/04/22 11:41:23;;;;;;;10.23;3.73;;;;;;;22.30;20.14;98371.63;8398535;28;20188;-68
2021/04/22 11:45:27;;;;;;;12.93;3.93;;;;;;;21.73;20.00;98379.06;8398052;28;20203;-68
2021/04/22 11:49:32;;;;;;;12.83;3.77;;;;;;;22.02;20.43;98374.78;8397552;28;20680;-67
2021/04/22 11:53:35;;;;;;;13.07;3.70;;;;;;;21.72;19.66;98369.47;8397314;28;20205;-68
2021/04/22 11:57:51;;;;;;;12.10;4.30;;;;;;;21.71;22.14;98362.53;8396973;28;20242;-68
2021/04/22 12:01:58;;;;;;;12.20;3.63;;;;;;;22.19;20.71;98359.31;8397608;28;20204;-67
2021/04/22 12:06:02;;;;;;;13.57;3.83;;;;;;;21.72;20.63;98372.09;8397905;28;20481;-68
2021/04/22 12:10:05;;;;;;;10.57;4.30;;;;;;;21.63;21.19;98371.09;8396256;28;20204;-68
2021/04/22 12:14:09;;;;;;;18.38;4.30;;;;;;;22.09;21.55;98361.91;8395341;28;20423;-63
2021/04/22 12:18:20;;;;;;;13.67;4.53;;;;;;;22.21;20.32;98362.66;8395545;28;20233;-62
2021/04/22 12:22:41;;;;;;;11.40;3.90;;;;;;;21.83;21.31;98364.97;8396085;28;20190;-62
2021/04/22 12:26:44;;;;;;;15.67;4.40;;;;;;;20.88;24.12;98357.78;8396335;28;20193;-62
2021/04/22 12:30:49;;;;;;;11.83;4.00;;;;;;;21.60;22.38;98353.72;8395690;28;20313;-63
2021/04/22 12:34:51;;;;;;;10.70;3.63;;;;;;;21.71;22.11;98357.28;8396338;28;20208;-63
2021/04/22 12:38:53;;;;;;;14.63;4.23;;;;;;;22.03;21.49;98371.19;8396258;28;20587;-63
2021/04/22 12:43:01;;;;;;;14.50;4.33;;;;;;;21.66;21.72;98355.00;8395342;28;20237;-63
2021/04/22 12:47:05;;;;;;;8.60;3.33;;;;;;;21.94;20.88;98352.69;8395863;28;20208;-63
2021/04/22 12:51:07;;;;;;;11.50;3.90;;;;;;;21.89;20.78;98355.69;8395426;28;20209;-63
2021/04/22 12:55:12;;;;;;;11.37;3.83;;;;;;;22.22;20.71;98335.34;8395563;28;20219;-63
2021/04/22 12:59:14;;;;;;;11.87;3.57;;;;;;;22.32;20.60;98336.22;8394945;28;20241;-63
2021/04/22 13:03:22;;;;;;;11.33;3.60;;;;;;;22.02;20.25;98332.59;8395893;28;20629;-62
2021/04/22 13:07:32;;;;;;;12.00;4.20;;;;;;;21.62;19.77;98348.31;8395920;28;20195;-62
2021/04/22 13:11:35;;;;;;;8.50;3.63;;;;;;;21.55;21.76;98336.63;8395107;28;20203;-63
2021/04/22 13:15:38;;;;;;;8.73;3.53;;;;;;;22.11;22.44;98333.63;8395246;28;20229;-63
2021/04/22 13:19:43;;;;;;;9.97;3.73;;;;;;;21.92;20.58;98325.63;8393916;28;20281;-64
2021/04/22 13:23:46;;;;;;;12.50;3.73;;;;;;;22.32;21.12;98324.84;8394796;28;20265;-63
2021/04/22 13:27:49;;;;;;;10.97;3.87;;;;;;;22.00;20.56;98323.16;8395774;28;20211;-63
2021/04/22 13:31:58;;;;;;;11.17;4.17;;;;;;;21.64;19.14;98328.78;8395027;28;20232;-63
2021/04/22 13:36:03;;;;;;;12.50;3.90;;;;;;;21.57;21.76;98326.78;8394167;28;20191;-63
2021/04/22 13:40:14;;;;;;;10.73;3.83;;;;;;;21.74;21.40;98322.72;8394996;28;20231;-63
2021/04/22 13:44:16;;;;;;;18.17;3.93;;;;;;;21.67;21.91;98328.53;8394136;28;20239;-64
2021/04/22 13:48:20;;;;;;;13.10;3.73;;;;;;;21.64;20.83;98312.97;8396149;28;20250;-63
2021/04/22 13:52:24;;;;;;;17.83;4.57;;;;;;;21.83;22.63;98308.78;8394410;28;20231;-63
2021/04/22 13:56:28;;;;;;;14.20;4.50;;;;;;;21.41;20.19;98308.75;8395033;28;20203;-71
2021/04/22 14:00:37;;;;;;;12.77;4.10;;;;;;;21.07;18.50;98304.47;8393587;28;20321;-66
2021/04/22 14:04:39;;;;;;;12.00;4.07;;;;;;;20.81;19.30;98311.03;8395205;28;20686;-66
2021/04/22 14:08:43;;;;;;;11.27;4.33;;;;;;;20.55;20.00;98315.75;8396920;28;20248;-67
2021/04/22 14:12:46;;;;;;;11.33;3.83;;;;;;;20.37;19.00;98316.25;8400756;28;20216;-66
2021/04/22 14:16:47;;;;;;;12.37;4.00;;;;;;;20.37;19.14;98308.38;8400718;28;20215;-66
2021/04/22 14:20:49;;;;;;;9.77;4.20;;;;;;;20.32;20.72;98313.16;8399166;28;20238;-66
2021/04/22 14:24:52;;;;;;;11.37;3.77;;;;;;;20.43;19.82;98317.56;8400179;28;20199;-66
2021/04/22 14:28:54;;;;;;;13.13;3.80;;;;;;;20.68;19.70;98319.94;8398864;28;20208;-66
2021/04/22 14:32:56;;;;;;;12.07;3.83;;;;;;;20.64;20.20;98312.41;8398830;28;20236;-66
2021/04/22 14:36:59;;;;;;;13.23;4.43;;;;;;;20.58;18.98;98307.59;8398953;28;20424;-66
2021/04/22 14:41:01;;;;;;;10.77;4.13;;;;;;;19.56;19.99;98312.81;8400218;28;20231;-66
2021/04/22 14:45:04;;;;;;;12.67;4.00;;;;;;;19.58;19.57;98313.53;8399871;28;20644;-66
2021/04/22 14:49:06;;;;;;;12.23;4.30;;;;;;;19.52;19.27;98320.09;8399405;28;20299;-66
2021/04/22 14:53:08;;;;;;;9.10;3.57;;;;;;;19.68;19.15;98322.38;8398737;28;20282;-67
2021/04/22 14:57:11;;;;;;;12.73;3.80;;;;;;;19.85;20.24;98313.25;8399311;28;20199;-66
2021/04/22 15:01:16;;;;;;;10.47;3.97;;;;;;;19.98;19.24;98321.03;8398538;28;20275;-66
2021/04/22 15:05:18;;;;;;;8.33;3.83;;;;;;;19.71;19.51;98319.53;8398697;28;20199;-66
2021/04/22 15:09:20;;;;;;;11.07;4.33;;;;;;;19.45;19.85;98325.94;8398040;28;20527;-66
2021/04/22 15:13:23;;;;;;;12.00;4.10;;;;;;;19.03;20.00;98322.91;8398193;28;20275;-66
2021/04/22 15:17:25;;;;;;;11.93;4.30;;;;;;;18.87;20.84;98333.72;8398357;28;20216;-66
2021/04/22 15:21:31;;;;;;;11.17;4.20;;;;;;;18.94;20.90;98327.03;8397600;28;20227;-66
2021/04/22 15:25:34;;;;;;;11.23;4.07;;;;;;;18.68;20.99;98318.41;8397518;28;20187;-64
2021/04/22 15:29:37;;;;;;;12.47;4.63;;;;;;;18.62;20.80;98324.09;8397212;28;20223;-64
2021/04/22 15:33:39;;;;;;;9.63;3.70;;;;;;;18.42;21.03;98323.72;8396990;28;20206;-62
2021/04/22 15:37:42;;;;;;;13.87;4.03;;;;;;;18.33;21.33;98327.00;8397622;28;20649;-62
2021/04/22 15:41:44;;;;;;;9.10;3.67;;;;;;;18.44;21.19;98324.44;8397935;28;20214;-62
2021/04/22 15:45:51;;;;;;;10.77;3.80;;;;;;;18.04;21.96;98334.28;8397739;28;20202;-62
2021/04/22 15:49:53;;;;;;;14.93;3.77;;;;;;;18.28;21.53;98345.69;8397268;28;20240;-62
2021/04/22 15:53:55;;;;;;;9.47;3.30;;;;;;;18.30;21.36;98349.03;8397309;28;20268;-62
2021/04/22 15:57:57;;;;;;;11.07;3.30;;;;;;;18.04;21.21;98352.63;8397272;28;20222;-62
2021/04/22 16:02:00;;;;;;;8.97;3.33;;;;;;;18.03;20.71;98357.03;8396661;28;20207;-64
2021/04/22 16:06:02;;;;;;;10.03;3.07;;;;;;;17.86;21.00;98349.47;8396334;28;20202;-64
2021/04/22 16:10:06;;;;;;;8.67;2.97;;;;;;;17.90;21.68;98351.78;8397050;28;20202;-65
2021/04/22 16:14:08;;;;;;;8.53;2.77;;;;;;;17.51;19.54;98360.50;8396562;28;20195;-65
2021/04/22 16:18:11;;;;;;;12.33;3.40;;;;;;;17.32;20.05;98363.50;8396520;28;20235;-65
2021/04/22 16:22:13;;;;;;;8.80;2.60;;;;;;;17.15;19.42;98360.22;8397285;28;20527;-66
2021/04/22 16:26:15;;;;;;;6.83;3.03;;;;;;;17.08;20.42;98366.78;8397375;28;20220;-66
2021/04/22 16:30:19;;;;;;;8.50;3.40;;;;;;;16.98;20.77;98360.44;8397368;28;20318;-66
2021/04/22 16:34:24;;;;;;;9.77;2.80;;;;;;;16.95;20.84;98364.09;8397163;28;20202;-66
2021/04/22 16:38:26;;;;;;;17.97;4.10;;;;;;;16.85;21.54;98372.63;8396848;28;20317;-66
2021/04/22 16:42:28;;;;;;;10.87;3.00;;;;;;;16.77;21.04;98370.47;8397096;28;20524;-65
2021/04/22 16:46:30;;;;;;;7.93;3.00;;;;;;;16.76;21.64;98372.25;8396408;28;20210;-65
2021/04/22 16:50:35;;;;;;;8.43;2.80;;;;;;;16.47;21.51;98374.09;8396391;28;20224;-66
2021/04/22 16:54:37;;;;;;;10.03;3.07;;;;;;;16.52;21.31;98372.00;8396257;28;20263;-66
2021/04/22 16:58:39;;;;;;;8.37;3.20;;;;;;;16.25;21.33;98385.00;8396356;28;20246;-66
2021/04/22 17:03:00;;;;;;;9.20;3.23;;;;;;;16.32;21.54;98378.47;8397385;28;20191;-66
2021/04/22 17:07:04;;;;;;;7.50;3.47;;;;;;;16.28;21.97;98377.00;8395772;28;20699;-66
2021/04/22 17:11:07;;;;;;;7.27;2.60;;;;;;;16.23;22.00;98387.72;8395768;28;20214;-66
2021/04/22 17:15:10;;;;;;;8.30;3.23;;;;;;;16.27;22.45;98385.75;8396369;28;20645;-66
2021/04/22 17:19:13;;;;;;;9.87;2.80;;;;;;;16.04;22.05;98400.22;8395738;28;20234;-66
2021/04/22 17:23:19;;;;;;;6.47;2.20;;;;;;;15.99;21.81;98403.09;8395755;28;20206;-66
2021/04/22 17:27:22;;;;;;;7.77;2.90;;;;;;;15.53;22.56;98400.53;8395664;28;20286;-66
2021/04/22 17:31:26;;;;;;;6.67;2.77;;;;;;;15.61;22.62;98402.69;8395932;28;20223;-67
2021/04/22 17:35:28;;;;;;;10.30;3.40;;;;;;;15.44;22.54;98407.13;8396769;28;20207;-66
2021/04/22 17:39:31;;;;;;;7.77;3.30;;;;;;;15.28;23.06;98408.91;8396643;28;20226;-66
2021/04/22 17:43:34;;;;;;;10.63;3.80;;;;;;;15.10;23.40;98412.56;8403445;28;20206;-67
2021/04/22 17:47:36;;;;;;;8.43;3.30;;;;;;;15.09;23.65;98408.28;8401679;28;20583;-65
2021/04/22 17:51:38;;;;;;;7.47;3.90;;;;;;;15.08;24.49;98423.09;8402564;28;20247;-66
2021/04/22 17:55:41;;;;;;;11.03;4.70;;;;;;;15.16;24.32;98423.50;8401854;28;20225;-67
2021/04/22 17:59:44;;;;;;;8.30;3.17;;;;;;;14.85;24.70;98424.38;8400939;28;20543;-67
2021/04/22 18:03:46;;;;;;;11.50;3.67;;;;;;;14.78;24.93;98431.66;8401426;28;20549;-67
2021/04/22 18:07:48;;;;;;;7.40;3.10;;;;;;;14.73;25.65;98453.69;8401386;28;20234;-67
2021/04/22 18:11:51;;;;;;;9.57;2.90;;;;;;;14.80;25.81;98447.22;8401381;28;20596;-67
2021/04/22 18:15:54;;;;;;;6.80;2.87;;;;;;;14.80;26.08;98457.66;8401622;28;20219;-65
2021/04/22 18:19:56;;;;;;;11.33;3.07;;;;;;;14.70;25.97;98456.44;8402018;28;20255;-66
2021/04/22 18:23:59;;;;;;;9.03;3.10;;;;;;;14.88;26.56;98463.28;8401581;28;20207;-66
2021/04/22 18:28:01;;;;;;;10.37;3.87;;;;;;;14.79;27.06;98469.84;8400740;28;20210;-66
2021/04/22 18:32:04;;;;;;;11.83;4.27;;;;;;;14.77;27.21;98473.44;8400680;28;20231;-66
2021/04/22 18:36:06;;;;;;;14.03;3.80;;;;;;;15.68;39.02;98484.97;8401997;28;20203;-67
2021/04/22 18:40:12;;;;;;;10.60;4.50;;;;;;;15.99;30.15;98484.09;8400390;28;20230;-68
2021/04/22 18:44:15;;;;;;;11.43;4.67;;;;;;;15.25;27.00;98488.22;8401554;28;20207;-65
2021/04/22 18:48:17;;;;;;;11.43;4.40;;;;;;;14.85;27.30;98500.81;8400619;28;20203;-65
2021/04/22 18:52:20;;;;;;;10.17;3.60;;;;;;;14.84;27.47;98508.72;8399785;28;20199;-65
2021/04/22 18:56:22;;;;;;;10.53;3.47;;;;;;;14.63;27.87;98516.72;8401009;28;20576;-65